createdAt,value
2022-10-22T00:00:58.729Z,9.07
2022-10-22T00:03:27.684Z,9.82
2022-10-22T00:05:54.318Z,15.57
2022-10-22T00:08:21.435Z,10.93
2022-10-22T00:10:48.269Z,15.75
2022-10-22T00:13:17.318Z,8.90
2022-10-22T00:15:46.251Z,8.77
2022-10-22T00:18:13.086Z,10.07
2022-10-22T00:20:39.765Z,10.57
2022-10-22T00:23:08.687Z,16.15
2022-10-22T00:25:36.068Z,8.32
2022-10-22T00:28:03.731Z,11.60
2022-10-22T00:30:34.793Z,11.13
2022-10-22T00:33:03.703Z,9.50
2022-10-22T00:35:32.526Z,11.18
2022-10-22T00:38:01.898Z,9.05
2022-10-22T00:40:28.745Z,9.50
2022-10-22T00:42:55.505Z,9.35
2022-10-22T00:45:27.479Z,12.98
2022-10-22T00:48:08.433Z,9.82
2022-10-22T00:50:58.615Z,12.90
2022-10-22T00:53:56.602Z,6.82
2022-10-22T00:56:24.859Z,8.65
2022-10-22T00:58:58.818Z,11.70
2022-10-22T01:01:30.762Z,14.50
2022-10-22T01:03:57.966Z,10.32
2022-10-22T01:06:31.186Z,10.00
2022-10-22T01:09:31.467Z,11.85
2022-10-22T01:12:19.833Z,9.75
2022-10-22T01:14:49.537Z,10.93
2022-10-22T01:17:32.201Z,9.65
2022-10-22T01:20:32.261Z,7.60
2022-10-22T01:23:25.424Z,10.30
2022-10-22T01:26:13.300Z,7.97
2022-10-22T01:28:48.773Z,10.13
2022-10-22T01:31:20.823Z,13.60
2022-10-22T01:33:49.150Z,10.05
2022-10-22T01:36:17.959Z,9.10
2022-10-22T01:38:46.299Z,8.57
2022-10-22T01:41:14.380Z,9.93
2022-10-22T01:43:41.055Z,12.38
2022-10-22T01:46:11.635Z,9.48
2022-10-22T01:48:44.032Z,10.57
2022-10-22T01:52:19.541Z,8.07
2022-10-22T01:55:02.359Z,12.15
2022-10-22T01:58:06.445Z,9.48
2022-10-22T02:00:36.865Z,8.30
2022-10-22T02:03:13.098Z,11.98
2022-10-22T02:05:43.141Z,10.93
2022-10-22T02:08:15.093Z,11.73
2022-10-22T02:10:46.105Z,8.13
2022-10-22T02:13:18.197Z,9.90
2022-10-22T02:15:46.830Z,11.50
2022-10-22T02:18:18.448Z,11.77
2022-10-22T02:20:48.468Z,8.05
2022-10-22T02:23:18.011Z,11.60
2022-10-22T02:25:49.389Z,10.05
2022-10-22T02:29:04.015Z,8.48
2022-10-22T02:31:36.455Z,9.43
2022-10-22T02:34:10.074Z,8.02
2022-10-22T02:36:38.557Z,10.35
2022-10-22T02:39:07.919Z,10.65
2022-10-22T02:41:37.587Z,11.05
2022-10-22T02:44:09.321Z,10.27
2022-10-22T02:46:36.892Z,12.10
2022-10-22T02:49:06.294Z,12.23
2022-10-22T02:51:35.437Z,12.48
2022-10-22T02:54:04.661Z,11.00
2022-10-22T02:56:34.209Z,9.20
2022-10-22T02:59:00.963Z,10.45
2022-10-22T03:01:27.617Z,10.05
2022-10-22T03:03:56.442Z,10.23
2022-10-22T03:06:23.204Z,9.93
2022-10-22T03:08:50.006Z,10.88
2022-10-22T03:11:18.176Z,11.77
2022-10-22T03:13:47.412Z,11.25
2022-10-22T03:16:16.251Z,9.73
2022-10-22T03:18:42.990Z,12.13
2022-10-22T03:21:32.476Z,7.78
2022-10-22T03:24:04.990Z,13.55
2022-10-22T03:26:36.994Z,9.07
2022-10-22T03:29:06.513Z,8.75
2022-10-22T03:31:37.954Z,12.48
2022-10-22T03:34:07.195Z,9.30
2022-10-22T03:36:36.440Z,12.75
2022-10-22T03:39:05.877Z,10.57
2022-10-22T03:41:35.559Z,11.35
2022-10-22T03:44:06.026Z,11.52
2022-10-22T03:46:33.021Z,10.27
2022-10-22T03:49:01.931Z,9.18
2022-10-22T03:51:31.213Z,11.57
2022-10-22T03:53:57.897Z,10.32
2022-10-22T03:56:26.813Z,11.68
2022-10-22T03:58:59.429Z,13.27
2022-10-22T04:01:27.599Z,15.25
2022-10-22T04:03:57.388Z,12.38
2022-10-22T04:06:26.328Z,10.70
2022-10-22T04:08:55.236Z,10.85
2022-10-22T04:11:22.197Z,10.15
2022-10-22T04:13:48.929Z,13.70
2022-10-22T04:16:18.289Z,13.13
2022-10-22T04:18:46.439Z,10.18
2022-10-22T04:21:14.698Z,13.32
2022-10-22T04:23:49.798Z,12.88
2022-10-22T04:26:19.876Z,12.75
2022-10-22T04:28:50.924Z,9.73
2022-10-22T04:31:20.290Z,11.60
2022-10-22T04:33:51.986Z,12.40
2022-10-22T04:36:21.766Z,13.93
2022-10-22T04:38:54.276Z,13.43
2022-10-22T04:41:28.727Z,16.23
2022-10-22T04:43:59.131Z,10.45
2022-10-22T04:46:28.070Z,13.00
2022-10-22T04:48:55.217Z,11.10
2022-10-22T04:51:26.147Z,11.05
2022-10-22T04:53:55.959Z,12.35
2022-10-22T04:56:31.201Z,12.85
2022-10-22T04:59:00.739Z,11.32
2022-10-22T05:01:29.938Z,13.98
2022-10-22T05:04:04.172Z,11.90
2022-10-22T05:06:32.166Z,13.50
2022-10-22T05:09:02.244Z,14.50
2022-10-22T05:11:41.552Z,10.02
2022-10-22T05:14:09.503Z,9.65
2022-10-22T05:16:41.011Z,11.52
2022-10-22T05:19:08.549Z,10.70
2022-10-22T05:21:37.326Z,10.80
2022-10-22T05:24:04.755Z,13.32
2022-10-22T05:26:31.460Z,11.00
2022-10-22T05:29:05.299Z,11.02
2022-10-22T05:31:31.984Z,11.70
2022-10-22T05:34:01.183Z,11.13
2022-10-22T05:36:27.916Z,9.82
2022-10-22T05:38:54.678Z,15.48
2022-10-22T05:41:26.329Z,11.40
2022-10-22T05:43:56.174Z,10.23
2022-10-22T05:46:24.788Z,9.30
2022-10-22T05:48:52.385Z,9.93
2022-10-22T05:51:22.189Z,10.00
2022-10-22T05:53:56.031Z,9.70
2022-10-22T05:56:23.513Z,12.35
2022-10-22T05:58:53.239Z,10.30
2022-10-22T06:01:24.667Z,11.27
2022-10-22T06:03:57.790Z,10.52
2022-10-22T06:06:30.438Z,11.00
2022-10-22T06:09:12.569Z,15.40
2022-10-22T06:11:42.013Z,10.57
2022-10-22T06:14:12.275Z,16.70
2022-10-22T06:16:41.756Z,12.77
2022-10-22T06:19:09.764Z,12.32
2022-10-22T06:21:36.506Z,9.35
2022-10-22T06:24:03.315Z,10.25
2022-10-22T06:26:31.244Z,12.13
2022-10-22T06:28:58.511Z,8.30
2022-10-22T06:31:28.830Z,11.40
2022-10-22T06:33:57.803Z,16.80
2022-10-22T06:36:25.069Z,13.45
2022-10-22T06:38:55.836Z,13.63
2022-10-22T06:41:28.700Z,14.10
2022-10-22T06:43:57.607Z,15.18
2022-10-22T06:46:25.378Z,15.70
2022-10-22T06:48:57.912Z,13.38
2022-10-22T06:51:25.831Z,10.05
2022-10-22T06:53:56.541Z,12.38
2022-10-22T06:56:26.518Z,11.50
2022-10-22T06:59:00.061Z,8.43
2022-10-22T07:01:30.141Z,10.60
2022-10-22T07:03:57.209Z,8.32
2022-10-22T07:06:25.730Z,8.48
2022-10-22T07:08:56.568Z,12.27
2022-10-22T07:11:30.902Z,13.00
2022-10-22T07:13:59.840Z,10.82
2022-10-22T07:16:32.547Z,7.50
2022-10-22T07:19:03.423Z,11.57
2022-10-22T07:21:32.718Z,11.73
2022-10-22T07:24:01.693Z,10.90
2022-10-22T07:26:30.959Z,11.40
2022-10-22T07:28:58.819Z,12.48
2022-10-22T07:31:25.811Z,10.18
2022-10-22T07:33:52.856Z,10.20
2022-10-22T07:36:19.703Z,10.85
2022-10-22T07:38:54.997Z,6.35
2022-10-22T07:41:25.204Z,10.73
2022-10-22T07:43:51.979Z,9.27
2022-10-22T07:46:19.110Z,9.98
2022-10-22T07:48:48.375Z,11.25
2022-10-22T07:51:15.500Z,10.82
2022-10-22T07:53:42.226Z,8.70
2022-10-22T07:56:13.949Z,10.93
2022-10-22T07:58:45.139Z,10.57
2022-10-22T08:01:11.883Z,7.68
2022-10-22T08:03:40.931Z,10.90
2022-10-22T08:06:07.798Z,11.93
2022-10-22T08:08:34.911Z,8.85
2022-10-22T08:11:02.232Z,8.43
2022-10-22T08:13:33.520Z,8.07
2022-10-22T08:16:01.115Z,6.88
2022-10-22T08:18:28.851Z,9.05
2022-10-22T08:20:58.635Z,10.93
2022-10-22T08:23:29.032Z,6.43
2022-10-22T08:25:57.158Z,8.52
2022-10-22T08:28:29.583Z,8.73
2022-10-22T08:30:56.371Z,7.13
2022-10-22T08:33:23.119Z,8.90
2022-10-22T08:35:53.092Z,7.32
2022-10-22T08:38:22.032Z,8.63
2022-10-22T08:41:03.390Z,8.23
2022-10-22T08:43:30.062Z,8.43
2022-10-22T08:46:30.557Z,7.97
2022-10-22T08:49:06.170Z,8.13
2022-10-22T08:51:40.396Z,8.82
2022-10-22T08:54:39.080Z,9.02
2022-10-22T08:57:08.971Z,9.98
2022-10-22T08:59:59.010Z,9.05
2022-10-22T09:02:33.707Z,8.23
2022-10-22T09:05:18.288Z,5.93
2022-10-22T09:07:49.957Z,7.05
2022-10-22T09:10:19.274Z,5.00
2022-10-22T09:12:51.056Z,8.77
2022-10-22T09:15:19.566Z,7.45
2022-10-22T09:18:04.843Z,8.65
2022-10-22T09:20:53.840Z,6.22
2022-10-22T09:23:32.137Z,6.47
2022-10-22T09:26:00.566Z,8.45
2022-10-22T09:28:29.830Z,9.20
2022-10-22T09:33:30.896Z,6.63
2022-10-22T09:36:06.844Z,6.88
2022-10-22T09:38:39.530Z,10.77
2022-10-22T09:41:06.814Z,7.70
2022-10-22T09:43:36.077Z,8.57
2022-10-22T09:46:06.550Z,8.70
2022-10-22T09:48:41.224Z,6.47
2022-10-22T09:51:27.618Z,9.02
2022-10-22T09:54:03.213Z,11.35
2022-10-22T09:56:36.869Z,7.53
2022-10-22T09:59:09.137Z,7.25
2022-10-22T10:01:40.865Z,5.38
2022-10-22T10:04:14.041Z,5.93
2022-10-22T10:06:42.974Z,6.00
2022-10-22T10:09:22.085Z,5.40
2022-10-22T10:11:52.319Z,10.60
2022-10-22T10:14:18.994Z,7.45
2022-10-22T10:17:14.088Z,8.60
2022-10-22T10:19:52.238Z,7.22
2022-10-22T10:22:46.653Z,8.20
2022-10-22T10:25:37.816Z,9.68
2022-10-22T10:28:18.820Z,6.65
2022-10-22T10:31:02.862Z,7.03
2022-10-22T10:33:38.406Z,4.03
2022-10-22T10:39:08.725Z,7.55
2022-10-22T10:41:47.347Z,6.45
2022-10-22T10:44:35.080Z,6.32
2022-10-22T10:47:07.790Z,5.72
2022-10-22T10:49:36.251Z,5.28
2022-10-22T10:52:21.674Z,7.18
2022-10-22T10:54:51.158Z,8.07
2022-10-22T10:57:49.472Z,6.97
2022-10-22T11:00:22.405Z,5.75
2022-10-22T11:03:19.474Z,7.13
2022-10-22T11:05:52.932Z,4.22
2022-10-22T11:08:33.810Z,3.00
2022-10-22T11:11:04.675Z,5.60
2022-10-22T11:13:45.993Z,9.65
2022-10-22T11:16:25.910Z,6.20
2022-10-22T11:19:04.266Z,5.55
2022-10-22T11:21:40.219Z,8.20
2022-10-22T11:24:26.912Z,6.47
2022-10-22T11:27:05.655Z,6.38
2022-10-22T11:29:39.992Z,6.00
2022-10-22T11:32:16.210Z,6.85
2022-10-22T11:34:51.493Z,5.05
2022-10-22T11:37:22.187Z,5.32
2022-10-22T11:39:59.690Z,9.05
2022-10-22T11:42:57.341Z,7.50
2022-10-22T11:45:26.514Z,8.18
2022-10-22T11:48:05.967Z,5.50
2022-10-22T11:50:43.669Z,5.40
2022-10-22T11:53:13.359Z,6.47
2022-10-22T11:56:04.606Z,6.10
2022-10-22T11:58:44.751Z,8.27
2022-10-22T12:01:11.464Z,6.00
2022-10-22T12:03:41.217Z,5.57
2022-10-22T12:06:11.692Z,6.13
2022-10-22T12:09:01.620Z,5.93
2022-10-22T12:11:40.382Z,6.43
2022-10-22T12:14:16.430Z,4.43
2022-10-22T12:16:57.018Z,9.23
2022-10-22T12:19:30.928Z,4.78
2022-10-22T12:22:06.462Z,4.70
2022-10-22T12:27:30.008Z,4.97
2022-10-22T12:30:01.161Z,6.55
2022-10-22T12:32:37.363Z,5.80
2022-10-22T12:35:14.549Z,3.78
2022-10-22T12:37:41.616Z,5.13
2022-10-22T12:40:33.631Z,6.82
2022-10-22T12:43:24.837Z,4.75
2022-10-22T12:45:54.777Z,4.88
2022-10-22T12:48:29.692Z,4.68
2022-10-22T12:50:59.892Z,3.15
2022-10-22T12:53:35.026Z,3.78
2022-10-22T12:58:43.146Z,3.25
2022-10-22T13:01:16.708Z,3.15
2022-10-22T13:03:47.376Z,4.40
2022-10-22T13:06:20.398Z,3.83
2022-10-22T13:09:07.885Z,3.10
2022-10-22T13:11:39.954Z,4.95
2022-10-22T13:14:22.863Z,5.38
2022-10-22T13:17:08.414Z,4.82
2022-10-22T13:19:42.685Z,3.35
2022-10-22T13:22:28.045Z,3.80
2022-10-22T13:27:24.065Z,5.97
2022-10-22T13:29:51.142Z,4.72
2022-10-22T13:32:33.741Z,5.40
2022-10-22T13:35:02.318Z,2.58
2022-10-22T13:37:34.004Z,4.10
2022-10-22T13:40:00.724Z,3.08
2022-10-22T13:42:27.417Z,4.10
2022-10-22T13:44:54.216Z,2.65
2022-10-22T13:47:29.343Z,3.80
2022-10-22T13:50:02.591Z,1.67
2022-10-22T13:52:38.468Z,5.30
2022-10-22T13:55:20.004Z,3.63
2022-10-22T13:57:47.348Z,3.40
2022-10-22T14:00:19.851Z,6.43
2022-10-22T14:02:48.753Z,4.30
2022-10-22T14:05:17.678Z,3.83
2022-10-22T14:07:45.000Z,3.55
2022-10-22T14:10:16.324Z,5.32
2022-10-22T14:12:43.276Z,3.05
2022-10-22T14:15:15.301Z,5.53
2022-10-22T14:17:49.573Z,3.03
2022-10-22T14:20:25.576Z,3.67
2022-10-22T14:22:52.858Z,3.22
2022-10-22T14:25:24.706Z,5.47
2022-10-22T14:27:51.801Z,5.15
2022-10-22T14:30:24.900Z,5.68
2022-10-22T14:32:52.288Z,4.10
2022-10-22T14:35:21.504Z,3.83
2022-10-22T14:37:51.407Z,4.25
2022-10-22T14:40:20.420Z,5.55
2022-10-22T14:42:48.855Z,5.50
2022-10-22T14:45:22.732Z,3.78
2022-10-22T14:47:51.337Z,3.78
2022-10-22T14:50:18.939Z,5.45
2022-10-22T14:52:46.062Z,4.10
2022-10-22T14:55:15.376Z,5.97
2022-10-22T14:57:42.549Z,3.92
2022-10-22T15:00:15.755Z,4.85
2022-10-22T15:02:42.644Z,3.70
2022-10-22T15:05:10.179Z,4.78
2022-10-22T15:07:37.193Z,3.50
2022-10-22T15:10:05.572Z,4.93
2022-10-22T15:12:32.646Z,3.30
2022-10-22T15:14:59.358Z,4.63
2022-10-22T15:17:26.391Z,4.03
2022-10-22T15:19:53.256Z,3.53
2022-10-22T15:22:20.075Z,3.92
2022-10-22T15:24:48.448Z,2.67
2022-10-22T15:27:17.445Z,4.10
2022-10-22T15:29:44.114Z,7.90
2022-10-22T15:32:11.232Z,5.43
2022-10-22T15:34:42.169Z,5.38
2022-10-22T15:37:13.418Z,4.65
2022-10-22T15:39:41.415Z,4.70
2022-10-22T15:42:09.485Z,4.80
2022-10-22T15:44:36.873Z,3.53
2022-10-22T15:47:07.229Z,4.18
2022-10-22T15:49:38.845Z,4.40
2022-10-22T15:52:06.561Z,4.60
2022-10-22T15:54:33.746Z,4.60
2022-10-22T15:57:08.601Z,3.28
2022-10-22T15:59:36.066Z,3.15
2022-10-22T16:02:03.146Z,5.03
2022-10-22T16:04:29.836Z,8.70
2022-10-22T16:06:59.552Z,11.05
2022-10-22T16:09:29.849Z,7.57
2022-10-22T16:11:56.567Z,6.18
2022-10-22T16:14:25.759Z,7.30
2022-10-22T16:16:55.446Z,6.05
2022-10-22T16:19:23.840Z,7.68
2022-10-22T16:21:52.709Z,4.57
2022-10-22T16:24:19.549Z,6.28
2022-10-22T16:26:46.941Z,5.25
2022-10-22T16:29:13.730Z,6.07
2022-10-22T16:31:42.765Z,6.38
2022-10-22T16:34:12.562Z,4.88
2022-10-22T16:36:39.681Z,7.43
2022-10-22T16:39:07.136Z,7.97
2022-10-22T16:41:37.255Z,4.95
2022-10-22T16:44:07.963Z,5.70
2022-10-22T16:46:38.240Z,5.72
2022-10-22T16:49:08.725Z,4.90
2022-10-22T16:51:35.816Z,5.43
2022-10-22T16:54:11.292Z,6.28
2022-10-22T16:56:39.540Z,5.05
2022-10-22T16:59:07.991Z,6.38
2022-10-22T17:01:40.933Z,8.07
2022-10-22T17:04:08.367Z,5.30
2022-10-22T17:06:37.244Z,7.28
2022-10-22T17:09:04.793Z,6.45
2022-10-22T17:11:35.702Z,8.30
2022-10-22T17:14:04.150Z,8.68
2022-10-22T17:16:31.060Z,9.63
2022-10-22T17:19:04.079Z,12.32
2022-10-22T17:21:34.159Z,10.20
2022-10-22T17:24:01.012Z,8.57
2022-10-22T17:26:27.955Z,7.07
2022-10-22T17:28:55.108Z,11.68
2022-10-22T17:31:26.687Z,9.27
2022-10-22T17:33:55.608Z,9.38
2022-10-22T17:36:24.058Z,11.55
2022-10-22T17:38:56.745Z,8.18
2022-10-22T17:41:29.468Z,8.75
2022-10-22T17:44:00.461Z,10.05
2022-10-22T17:46:31.695Z,7.53
2022-10-22T17:49:04.065Z,10.13
2022-10-22T17:51:31.731Z,8.43
2022-10-22T17:53:58.590Z,6.80
2022-10-22T17:56:27.652Z,8.13
2022-10-22T17:58:54.515Z,9.93
2022-10-22T18:01:21.288Z,9.02
2022-10-22T18:03:48.490Z,9.80
2022-10-22T18:06:15.566Z,7.95
2022-10-22T18:08:42.417Z,8.25
2022-10-22T18:11:16.817Z,8.32
2022-10-22T18:13:43.510Z,8.68
2022-10-22T18:16:12.662Z,12.77
2022-10-22T18:18:39.407Z,7.13
2022-10-22T18:21:06.276Z,11.13
2022-10-22T18:23:33.409Z,10.55
2022-10-22T18:26:04.196Z,12.65
2022-10-22T18:28:30.877Z,10.63
2022-10-22T18:30:57.589Z,9.25
2022-10-22T18:33:25.171Z,8.50
2022-10-22T18:35:53.423Z,8.18
2022-10-22T18:38:23.646Z,8.15
2022-10-22T18:40:50.593Z,10.30
2022-10-22T18:43:17.957Z,9.85
2022-10-22T18:45:51.194Z,10.63
2022-10-22T18:48:19.656Z,13.60
2022-10-22T18:50:47.358Z,11.75
2022-10-22T18:53:16.149Z,11.00
2022-10-22T18:55:42.891Z,10.13
2022-10-22T18:58:09.625Z,10.73
2022-10-22T19:00:39.450Z,12.80
2022-10-22T19:03:06.577Z,9.40
2022-10-22T19:05:33.984Z,10.57
2022-10-22T19:08:00.676Z,10.68
2022-10-22T19:10:27.351Z,9.50
2022-10-22T19:12:56.313Z,9.00
2022-10-22T19:15:23.148Z,7.88
2022-10-22T19:17:49.781Z,10.55
2022-10-22T19:20:16.572Z,10.60
2022-10-22T19:22:45.400Z,9.45
2022-10-22T19:25:12.264Z,8.35
2022-10-22T19:27:40.177Z,12.10
2022-10-22T19:30:07.518Z,11.05
2022-10-22T19:32:36.699Z,10.80
2022-10-22T19:35:03.566Z,10.65
2022-10-22T19:37:32.695Z,12.80
2022-10-22T19:40:00.050Z,14.52
2022-10-22T19:42:26.838Z,12.38
2022-10-22T19:44:56.570Z,9.75
2022-10-22T19:47:23.351Z,9.88
2022-10-22T19:49:50.082Z,11.18
2022-10-22T19:52:16.922Z,11.70
2022-10-22T19:54:45.673Z,10.65
2022-10-22T19:57:18.379Z,12.80
2022-10-22T19:59:45.833Z,10.90
2022-10-22T20:02:16.176Z,12.07
2022-10-22T20:04:47.921Z,14.10
2022-10-22T20:07:16.837Z,12.32
2022-10-22T20:09:45.769Z,17.17
2022-10-22T20:12:14.732Z,13.30
2022-10-22T20:14:41.564Z,13.52
2022-10-22T20:17:10.798Z,15.57
2022-10-22T20:19:37.492Z,11.60
2022-10-22T20:22:04.272Z,13.52
2022-10-22T20:24:31.053Z,13.45
2022-10-22T20:26:57.776Z,12.27
2022-10-22T20:29:27.054Z,12.98
2022-10-22T20:31:54.102Z,14.35
2022-10-22T20:34:20.925Z,15.32
2022-10-22T20:36:47.996Z,11.57
2022-10-22T20:39:16.266Z,14.80
2022-10-22T20:41:45.565Z,14.07
2022-10-22T20:44:18.444Z,14.43
2022-10-22T20:46:45.440Z,10.75
2022-10-22T20:49:15.616Z,11.15
2022-10-22T20:51:42.877Z,11.57
2022-10-22T20:54:13.543Z,13.07
2022-10-22T20:56:41.414Z,11.70
2022-10-22T20:59:10.922Z,20.33
2022-10-22T21:01:46.189Z,11.93
2022-10-22T21:04:13.679Z,9.70
2022-10-22T21:06:45.626Z,14.65
2022-10-22T21:09:16.304Z,10.48
2022-10-22T21:11:43.656Z,12.88
2022-10-22T21:14:15.604Z,8.52
2022-10-22T21:16:44.307Z,12.02
2022-10-22T21:19:11.608Z,11.43
2022-10-22T21:21:40.701Z,10.30
2022-10-22T21:24:07.757Z,10.23
2022-10-22T21:26:40.153Z,10.82
2022-10-22T21:29:10.299Z,7.68
2022-10-22T21:31:37.779Z,15.25
2022-10-22T21:34:07.218Z,12.95
2022-10-22T21:36:34.029Z,12.10
2022-10-22T21:39:01.518Z,11.27
2022-10-22T21:41:30.375Z,14.43
2022-10-22T21:43:57.226Z,12.27
2022-10-22T21:46:27.641Z,11.50
2022-10-22T21:48:56.286Z,11.25
2022-10-22T21:51:27.918Z,12.57
2022-10-22T21:53:55.145Z,11.15
2022-10-22T21:56:28.086Z,10.55
2022-10-22T21:58:55.563Z,7.88
2022-10-22T22:01:25.201Z,10.95
2022-10-22T22:03:52.982Z,12.82
2022-10-22T22:06:22.090Z,9.07
2022-10-22T22:08:49.947Z,12.15
2022-10-22T22:11:19.567Z,13.30
2022-10-22T22:13:48.895Z,9.50
2022-10-22T22:16:21.305Z,10.75
2022-10-22T22:18:50.707Z,12.82
2022-10-22T22:21:20.927Z,12.63
2022-10-22T22:23:50.921Z,14.23
2022-10-22T22:26:25.382Z,11.00
2022-10-22T22:28:55.807Z,9.13
2022-10-22T22:31:25.189Z,9.25
2022-10-22T22:33:57.947Z,9.05
2022-10-22T22:36:24.619Z,7.55
2022-10-22T22:38:55.910Z,8.82
2022-10-22T22:41:25.126Z,13.88
2022-10-22T22:43:51.913Z,10.82
2022-10-22T22:46:20.960Z,9.43
2022-10-22T22:48:49.544Z,10.30
2022-10-22T22:51:19.026Z,9.52
2022-10-22T22:53:48.494Z,14.82
2022-10-22T22:56:22.810Z,10.65
2022-10-22T22:58:55.087Z,10.68
2022-10-22T23:01:24.791Z,13.38
2022-10-22T23:04:00.673Z,14.35
2022-10-22T23:06:30.308Z,10.35
2022-10-22T23:08:58.768Z,9.60
2022-10-22T23:11:28.810Z,13.90
2022-10-22T23:13:58.597Z,11.13
2022-10-22T23:16:27.434Z,11.73
2022-10-22T23:18:57.498Z,8.60
2022-10-22T23:21:28.844Z,10.05
2022-10-22T23:23:58.513Z,8.98
2022-10-22T23:26:30.706Z,10.82
2022-10-22T23:29:08.226Z,11.95
2022-10-22T23:31:34.931Z,11.00
2022-10-22T23:34:02.057Z,12.52
2022-10-22T23:36:30.746Z,8.35
2022-10-22T23:39:00.100Z,11.07
2022-10-22T23:41:29.323Z,12.05
2022-10-22T23:43:56.075Z,10.45
2022-10-22T23:46:25.025Z,11.27
2022-10-22T23:48:53.788Z,9.95
2022-10-22T23:51:28.733Z,11.45
2022-10-22T23:53:57.895Z,11.32
2022-10-22T23:56:25.156Z,11.35
2022-10-22T23:58:55.075Z,9.70
